Kingsley, North Dakota
Current Conditions -  °F | °C
As of 6:35 AM on Friday 31 Oct 2014 (Local Time) from K46D Reporting Station
Clear Clear  
Wind Chill:   Ceiling: Unl
Heat Index: 12°   Visibility: 10mi
Dew Point: 12°   Wind: 5mph
Humidity: 100%   Direction: 170°S
Pressure: 30.57"   Gusts: NA
Location:  47.5863°N, 98.3719°W
Report Text: K46D 311135Z AUTO 17004KT 10SM CLR M11/M11 A3057 RMK AO2
Loading
Personal Weather Stations






























Interactive Weather Map
Tropical Storm Tracking
New forecast layout! Learn more

10-Day Weather Forecast

Advertisements
Track Severe Weather on mobile